Time;durP1;ratioP1;P1;durP2;ratioP2;P2;SDS_P1;SDS_P2;PMS_P1;PMS_P2;Temp;Humidity;BMP_temperature;BMP_pressure;BME280_temperature;BME280_humidity;BME280_pressure;Samples;Min_cycle;Max_cycle;Signal;HPM_P1;HPM_P2
2023/04/09 00:01:04;;;;;;;;;;;;;;;8.03;63.68;100553.94;4486288;31;33634;-81
2023/04/09 00:03:32;;;;;;;;;;;;;;;8.00;63.74;100555.78;4466236;32;34420;-81
2023/04/09 00:05:59;;;;;;;;;;;;;;;8.03;63.72;100547.84;4464855;32;32790;-81
2023/04/09 00:08:27;;;;;;;;;;;;;;;7.99;63.89;100559.31;4477350;32;33769;-82
2023/04/09 00:10:58;;;;;;;;;;;;;;;8.06;63.95;100558.25;4475624;32;35438;-81
2023/04/09 00:13:28;;;;;;;;;;;;;;;8.06;64.03;100563.53;4479858;32;34417;-82
2023/04/09 00:15:59;;;;;;;;;;;;;;;8.11;63.78;100551.12;4481347;31;34578;-81
2023/04/09 00:18:27;;;;;;;;;;;;;;;8.08;63.95;100553.84;4462431;32;32536;-81
2023/04/09 00:20:55;;;;;;;;;;;;;;;7.99;64.31;100554.91;4465438;32;32593;-81
2023/04/09 00:23:22;;;;;;;;;;;;;;;7.85;65.27;100555.19;4480430;31;33763;-81
2023/04/09 00:25:58;;;;;;;;;;;;;;;8.06;64.48;100547.75;4477699;32;33532;-81
2023/04/09 00:28:26;;;;;;;;;;;;;;;8.18;63.96;100550.13;4475888;31;31930;-81
2023/04/09 00:30:55;;;;;;;;;;;;;;;8.00;64.70;100554.00;4465697;32;33457;-82
2023/04/09 00:33:23;;;;;;;;;;;;;;;7.99;64.60;100552.28;4491439;31;34598;-82
2023/04/09 00:35:51;;;;;;;;;;;;;;;7.99;64.60;100556.69;4463720;32;33752;-81
2023/04/09 00:38:19;;;;;;;;;;;;;;;8.01;64.46;100555.72;4486536;31;33214;-82
2023/04/09 00:40:49;;;;;;;;;;;;;;;7.95;64.84;100548.84;4488235;31;32866;-82
2023/04/09 00:43:17;;;;;;;;;;;;;;;7.95;64.82;100551.47;4479631;32;34656;-82
2023/04/09 00:45:45;;;;;;;;;;;;;;;7.83;65.16;100542.97;4466248;32;33175;-82
2023/04/09 00:48:12;;;;;;;;;;;;;;;7.88;65.31;100544.63;4475111;32;31293;-81
2023/04/09 00:50:40;;;;;;;;;;;;;;;7.87;65.35;100542.88;4475529;31;33366;-82
2023/04/09 00:53:08;;;;;;;;;;;;;;;7.94;65.16;100539.22;4475363;31;33673;-82
2023/04/09 00:55:37;;;;;;;;;;;;;;;7.82;65.38;100539.47;4486810;31;33020;-82
2023/04/09 00:58:06;;;;;;;;;;;;;;;7.81;65.56;100545.63;4475219;32;33122;-82
2023/04/09 01:00:33;;;;;;;;;;;;;;;7.62;65.98;100546.91;4476143;32;33265;-83
2023/04/09 01:03:01;;;;;;;;;;;;;;;7.72;65.86;100542.31;4484726;31;33731;-83
2023/04/09 01:05:48;;;;;;;;;;;;;;;7.69;65.84;100546.75;4481625;31;34956;-82
2023/04/09 01:08:29;;;;;;;;;;;;;;;7.85;65.40;100538.56;4495496;31;32710;-83
2023/04/09 01:11:14;;;;;;;;;;;;;;;7.96;65.17;100550.56;4491863;31;33852;-83
2023/04/09 01:14:01;;;;;;;;;;;;;;;7.88;65.15;100542.00;4478220;31;33451;-83
2023/04/09 01:16:30;;;;;;;;;;;;;;;7.83;65.43;100541.22;4486493;31;33301;-83
2023/04/09 01:19:10;;;;;;;;;;;;;;;7.90;65.24;100540.19;4479571;31;32533;-82
2023/04/09 01:21:39;;;;;;;;;;;;;;;8.07;64.80;100545.09;4490280;31;34270;-83
2023/04/09 01:24:06;;;;;;;;;;;;;;;8.10;64.48;100544.16;4490148;31;34215;-83
2023/04/09 01:26:35;;;;;;;;;;;;;;;8.17;64.30;100545.78;4486114;31;33591;-82
2023/04/09 01:29:03;;;;;;;;;;;;;;;8.15;64.15;100537.88;4481163;31;32663;-83
2023/04/09 01:31:34;;;;;;;;;;;;;;;8.11;64.44;100543.25;4493987;31;33831;-82
2023/04/09 01:34:02;;;;;;;;;;;;;;;8.15;64.10;100542.28;4465380;31;33135;-83
2023/04/09 01:36:31;;;;;;;;;;;;;;;7.96;65.03;100553.19;4472493;31;33898;-83
2023/04/09 01:39:02;;;;;;;;;;;;;;;8.05;64.64;100546.88;4494106;31;32726;-82
2023/04/09 01:41:30;;;;;;;;;;;;;;;7.96;64.67;100547.94;4486231;31;32882;-83
2023/04/09 01:44:00;;;;;;;;;;;;;;;8.03;64.67;100548.69;4486106;31;33257;-81
2023/04/09 01:46:28;;;;;;;;;;;;;;;8.00;64.69;100550.50;4495449;31;34081;-82
2023/04/09 01:48:56;;;;;;;;;;;;;;;7.95;64.56;100551.47;4489305;31;32958;-82
2023/04/09 01:51:26;;;;;;;;;;;;;;;7.99;64.41;100552.28;4466459;31;33945;-82
2023/04/09 01:53:53;;;;;;;;;;;;;;;7.86;64.68;100546.41;4484564;31;35003;-82
2023/04/09 01:56:21;;;;;;;;;;;;;;;7.89;64.99;100543.72;4478199;31;34119;-81
2023/04/09 01:58:48;;;;;;;;;;;;;;;8.07;64.40;100544.22;4487913;31;33016;-82
2023/04/09 02:01:21;;;;;;;;;;;;;;;8.12;63.98;100542.37;4491975;31;33355;-82
2023/04/09 02:03:53;;;;;;;;;;;;;;;8.08;63.91;100552.09;4491481;31;34255;-82
2023/04/09 02:06:38;;;;;;;;;;;;;;;8.14;63.87;100540.56;4477454;31;35163;-82
2023/04/09 02:09:07;;;;;;;;;;;;;;;8.10;63.71;100555.53;4478738;31;33753;-82
2023/04/09 02:11:39;;;;;;;;;;;;;;;8.11;63.65;100549.37;4478570;31;34757;-82
2023/04/09 02:14:08;;;;;;;;;;;;;;;7.94;63.93;100541.00;4473483;31;32634;-82
2023/04/09 02:16:37;;;;;;;;;;;;;;;8.07;63.72;100552.09;4492889;31;34114;-82
2023/04/09 02:19:05;;;;;;;;;;;;;;;7.96;63.32;100542.69;4479150;31;33234;-82
2023/04/09 02:21:34;;;;;;;;;;;;;;;7.71;64.11;100549.34;4468255;31;33234;-82
2023/04/09 02:24:01;;;;;;;;;;;;;;;7.83;63.62;100541.22;4500065;31;33330;-82
2023/04/09 02:26:29;;;;;;;;;;;;;;;7.69;63.82;100549.41;4492889;31;33831;-81
2023/04/09 02:28:57;;;;;;;;;;;;;;;7.75;63.53;100537.88;4485370;31;34364;-81
2023/04/09 02:31:25;;;;;;;;;;;;;;;7.59;63.74;100541.69;4478709;31;34619;-82
2023/04/09 02:33:53;;;;;;;;;;;;;;;7.51;64.38;100533.13;4491130;31;34776;-82
2023/04/09 02:36:20;;;;;;;;;;;;;;;7.55;63.85;100540.03;4493466;31;34150;-82
2023/04/09 02:38:48;;;;;;;;;;;;;;;7.60;63.71;100538.19;4485679;31;32114;-82
2023/04/09 02:41:15;;;;;;;;;;;;;;;7.78;63.17;100534.31;4493462;31;33506;-82
2023/04/09 02:43:45;;;;;;;;;;;;;;;7.62;63.56;100539.03;4491962;31;33380;-82
2023/04/09 02:46:13;;;;;;;;;;;;;;;7.52;63.98;100540.09;4484470;31;33259;-83
2023/04/09 02:48:40;;;;;;;;;;;;;;;7.60;63.33;100540.81;4484166;31;33531;-81
2023/04/09 02:51:08;;;;;;;;;;;;;;;7.65;63.42;100529.31;4484723;31;33584;-81
2023/04/09 02:53:36;;;;;;;;;;;;;;;7.64;63.51;100529.31;4464268;31;34121;-82
2023/04/09 02:56:04;;;;;;;;;;;;;;;7.77;62.92;100529.94;4485330;31;32526;-81
2023/04/09 02:58:31;;;;;;;;;;;;;;;7.63;63.22;100528.47;4491278;31;33283;-82
2023/04/09 03:00:59;;;;;;;;;;;;;;;7.65;62.68;100539.84;4493574;31;33682;-82
2023/04/09 03:03:28;;;;;;;;;;;;;;;7.68;62.67;100531.87;4487399;31;33445;-82
2023/04/09 03:05:55;;;;;;;;;;;;;;;7.25;63.83;100542.34;4479528;31;33791;-82
2023/04/09 03:08:24;;;;;;;;;;;;;;;7.30;63.76;100537.00;4493703;31;34026;-82
2023/04/09 03:10:51;;;;;;;;;;;;;;;7.17;63.86;100541.63;4479713;31;34166;-82
2023/04/09 03:13:19;;;;;;;;;;;;;;;7.13;64.07;100538.19;4471353;31;33306;-82
2023/04/09 03:15:51;;;;;;;;;;;;;;;7.08;64.23;100539.16;4494627;31;33429;-82
2023/04/09 03:18:23;;;;;;;;;;;;;;;7.21;63.48;100532.78;4480357;31;33098;-82
2023/04/09 03:20:52;;;;;;;;;;;;;;;7.31;63.07;100534.38;4490453;31;33816;-82
2023/04/09 03:23:22;;;;;;;;;;;;;;;7.23;63.23;100541.50;4487068;31;33629;-82
2023/04/09 03:25:58;;;;;;;;;;;;;;;7.24;63.28;100540.59;4478601;31;33783;-82
2023/04/09 03:28:26;;;;;;;;;;;;;;;7.23;62.83;100538.03;4474261;31;32223;-82
2023/04/09 03:30:54;;;;;;;;;;;;;;;7.23;62.59;100531.00;4486590;31;33182;-82
2023/04/09 03:33:22;;;;;;;;;;;;;;;7.05;63.07;100549.72;4473625;31;33147;-82
2023/04/09 03:35:52;;;;;;;;;;;;;;;6.99;62.92;100545.44;4494357;31;34107;-82
2023/04/09 03:38:20;;;;;;;;;;;;;;;6.85;62.97;100548.28;4486796;31;32195;-82
2023/04/09 03:40:49;;;;;;;;;;;;;;;6.72;63.76;100546.75;4487517;31;33425;-82
2023/04/09 03:43:17;;;;;;;;;;;;;;;6.84;63.20;100545.72;4485625;31;33242;-82
2023/04/09 03:45:46;;;;;;;;;;;;;;;6.74;63.22;100547.62;4478255;31;33348;-82
2023/04/09 03:48:14;;;;;;;;;;;;;;;6.65;63.79;100545.13;4475874;31;32204;-82
2023/04/09 03:50:42;;;;;;;;;;;;;;;6.61;63.75;100548.69;4493984;31;34530;-82
2023/04/09 03:53:11;;;;;;;;;;;;;;;6.73;63.25;100545.84;4480765;31;32580;-82
2023/04/09 03:55:39;;;;;;;;;;;;;;;6.62;63.50;100545.16;4492776;31;33675;-82
2023/04/09 03:58:08;;;;;;;;;;;;;;;6.77;62.99;100551.94;4487521;31;33042;-82
2023/04/09 04:00:36;;;;;;;;;;;;;;;6.59;63.19;100553.06;4481328;31;32857;-82
2023/04/09 04:03:10;;;;;;;;;;;;;;;6.65;62.92;100556.50;4487604;31;35126;-82
2023/04/09 04:05:41;;;;;;;;;;;;;;;6.71;63.17;100555.53;4494816;31;34125;-82
2023/04/09 04:08:09;;;;;;;;;;;;;;;6.72;62.79;100559.88;4481522;31;33363;-82
2023/04/09 04:10:37;;;;;;;;;;;;;;;6.62;62.87;100559.16;4481276;31;34401;-82
2023/04/09 04:13:13;;;;;;;;;;;;;;;6.59;63.13;100556.56;4481908;31;34414;-82
2023/04/09 04:15:42;;;;;;;;;;;;;;;6.72;63.01;100562.50;4500354;31;34812;-82
2023/04/09 04:18:10;;;;;;;;;;;;;;;6.67;63.17;100556.47;4479332;31;34076;-82
2023/04/09 04:20:39;;;;;;;;;;;;;;;6.61;63.53;100554.81;4467475;31;34368;-82
2023/04/09 04:23:06;;;;;;;;;;;;;;;6.74;63.06;100565.09;4492672;31;34216;-82
2023/04/09 04:25:36;;;;;;;;;;;;;;;6.78;63.25;100562.37;4494476;31;33918;-82
2023/04/09 04:28:04;;;;;;;;;;;;;;;6.70;63.89;100560.81;4493168;31;33257;-82
2023/04/09 04:30:35;;;;;;;;;;;;;;;6.77;63.88;100571.16;4492545;31;33960;-82
2023/04/09 04:33:04;;;;;;;;;;;;;;;6.84;63.83;100567.56;4482146;31;33445;-82
2023/04/09 04:35:34;;;;;;;;;;;;;;;6.98;63.46;100563.81;4493134;31;33638;-82
2023/04/09 04:38:03;;;;;;;;;;;;;;;7.00;63.51;100569.94;4485558;31;32975;-82
2023/04/09 04:40:30;;;;;;;;;;;;;;;7.08;63.22;100566.28;4486630;31;32918;-82
2023/04/09 04:42:58;;;;;;;;;;;;;;;6.97;64.00;100569.97;4493916;31;34995;-82
2023/04/09 04:48:02;;;;;;;;;;;;;;;7.04;64.08;100579.50;4496693;31;32887;-82
2023/04/09 04:50:31;;;;;;;;;;;;;;;7.04;64.03;100571.63;4500672;31;34498;-82
2023/04/09 04:53:01;;;;;;;;;;;;;;;7.19;63.93;100576.59;4479441;31;34283;-82
2023/04/09 04:55:34;;;;;;;;;;;;;;;7.22;63.77;100573.94;4494044;31;33800;-81
2023/04/09 04:58:03;;;;;;;;;;;;;;;7.19;64.10;100571.34;4479273;31;32354;-82
2023/04/09 05:00:31;;;;;;;;;;;;;;;7.35;63.35;100571.94;4478871;31;33860;-81
2023/04/09 05:02:59;;;;;;;;;;;;;;;7.29;63.79;100577.31;4478600;31;34991;-81
2023/04/09 05:05:28;;;;;;;;;;;;;;;7.18;64.33;100578.38;4464283;32;33572;-82
2023/04/09 05:08:00;;;;;;;;;;;;;;;7.15;65.00;100585.44;4477438;31;33859;-81
2023/04/09 05:10:34;;;;;;;;;;;;;;;7.43;64.17;100578.78;4463155;32;33476;-81
2023/04/09 05:13:14;;;;;;;;;;;;;;;7.46;64.21;100582.28;4475664;32;35794;-81
2023/04/09 05:15:42;;;;;;;;;;;;;;;7.49;64.15;100583.06;4476556;32;34421;-81
2023/04/09 05:18:10;;;;;;;;;;;;;;;7.39;64.79;100579.72;4462791;32;33047;-81
2023/04/09 05:20:38;;;;;;;;;;;;;;;7.67;63.56;100590.59;4465246;32;33325;-82
2023/04/09 05:23:09;;;;;;;;;;;;;;;7.51;64.37;100583.06;4462638;32;34607;-82
2023/04/09 05:25:39;;;;;;;;;;;;;;;7.77;63.66;100585.16;4459448;31;33383;-82
2023/04/09 05:28:11;;;;;;;;;;;;;;;7.83;63.00;100583.31;4461303;32;33388;-82
2023/04/09 05:30:39;;;;;;;;;;;;;;;7.77;64.06;100585.16;4471850;32;33807;-82
2023/04/09 05:33:09;;;;;;;;;;;;;;;7.53;64.92;100589.13;4451619;32;34340;-82
2023/04/09 05:35:44;;;;;;;;;;;;;;;7.73;65.14;100592.22;4477143;32;33240;-82
2023/04/09 05:38:17;;;;;;;;;;;;;;;8.02;64.14;100593.41;4476997;32;34066;-82
2023/04/09 05:40:55;;;;;;;;;;;;;;;8.16;63.52;100581.69;4462675;32;33234;-82
2023/04/09 05:43:24;;;;;;;;;;;;;;;8.24;63.16;100584.19;4486500;31;33326;-82
2023/04/09 05:46:01;;;;;;;;;;;;;;;8.05;64.03;100580.22;4462203;32;34412;-81
2023/04/09 05:48:40;;;;;;;;;;;;;;;8.09;64.12;100580.13;4464819;32;30191;-81
2023/04/09 05:51:08;;;;;;;;;;;;;;;8.20;63.94;100583.38;4476643;32;34239;-81
2023/04/09 05:53:47;;;;;;;;;;;;;;;8.20;64.10;100591.25;4470649;32;34067;-81
2023/04/09 05:56:22;;;;;;;;;;;;;;;8.40;63.55;100585.63;4452851;32;35119;-80
2023/04/09 05:58:55;;;;;;;;;;;;;;;8.56;62.61;100587.91;4462104;32;33705;-81
2023/04/09 06:01:24;;;;;;;;;;;;;;;8.29;63.76;100590.22;4463681;32;33733;-81
2023/04/09 06:03:52;;;;;;;;;;;;;;;8.24;63.88;100599.09;4458051;32;32928;-81
2023/04/09 06:06:24;;;;;;;;;;;;;;;8.44;63.84;100599.56;4474990;32;33440;-81
2023/04/09 06:09:00;;;;;;;;;;;;;;;8.56;63.30;100591.41;4464293;32;32521;-79
2023/04/09 06:11:29;;;;;;;;;;;;;;;8.53;63.30;100595.88;4476781;32;33481;-79
2023/04/09 06:14:03;;;;;;;;;;;;;;;8.68;62.80;100606.03;4472765;31;33256;-79
2023/04/09 06:16:31;;;;;;;;;;;;;;;8.44;63.69;100603.06;4474826;32;33794;-79
2023/04/09 06:18:59;;;;;;;;;;;;;;;8.66;63.49;100599.94;4473602;32;32594;-80
2023/04/09 06:21:27;;;;;;;;;;;;;;;8.53;63.70;100606.37;4463013;32;33351;-81
2023/04/09 06:23:56;;;;;;;;;;;;;;;8.53;63.68;100594.09;4485501;31;33439;-80
2023/04/09 06:26:27;;;;;;;;;;;;;;;8.98;62.49;100605.31;4474395;32;33850;-81
2023/04/09 06:29:03;;;;;;;;;;;;;;;8.91;62.68;100605.50;4473346;32;32594;-80
2023/04/09 06:31:34;;;;;;;;;;;;;;;8.82;63.11;100598.69;4474995;32;33831;-80
2023/04/09 06:34:02;;;;;;;;;;;;;;;8.92;63.16;100600.19;4464576;32;34307;-80
2023/04/09 06:36:32;;;;;;;;;;;;;;;9.26;61.69;100594.09;4476957;32;34643;-80
2023/04/09 06:39:04;;;;;;;;;;;;;;;9.01;62.57;100603.50;4478801;31;32231;-81
2023/04/09 06:41:36;;;;;;;;;;;;;;;8.96;63.04;100601.84;4479979;32;33209;-80
2023/04/09 06:44:10;;;;;;;;;;;;;;;9.11;62.89;100605.00;4464307;31;31601;-80
2023/04/09 06:49:23;;;;;;;;;;;;;;;9.07;63.18;100604.25;4466525;32;33390;-80
2023/04/09 06:51:52;;;;;;;;;;;;;;;9.10;63.03;100603.28;4479243;32;34796;-79
2023/04/09 06:54:22;;;;;;;;;;;;;;;9.24;62.94;100606.44;4476390;31;35539;-81
2023/04/09 06:57:03;;;;;;;;;;;;;;;9.53;62.14;100603.03;4476489;32;34214;-80
2023/04/09 06:59:34;;;;;;;;;;;;;;;9.30;62.77;100613.31;4463834;32;34066;-80
2023/04/09 07:02:02;;;;;;;;;;;;;;;9.34;62.79;100612.34;4474225;32;32497;-79
2023/04/09 07:04:31;;;;;;;;;;;;;;;9.57;61.06;100609.97;4479703;31;33482;-79
2023/04/09 07:07:03;;;;;;;;;;;;;;;9.65;60.79;100610.63;4464140;32;34137;-79
2023/04/09 07:09:36;;;;;;;;;;;;;;;9.58;60.78;100610.84;4452467;32;33497;-79
2023/04/09 07:12:20;;;;;;;;;;;;;;;9.55;61.15;100613.56;4477228;32;33184;-79
2023/04/09 07:14:50;;;;;;;;;;;;;;;9.78;60.71;100623.47;4473672;32;33994;-79
2023/04/09 07:17:19;;;;;;;;;;;;;;;9.68;60.85;100620.22;4488822;31;33430;-79
2023/04/09 07:19:50;;;;;;;;;;;;;;;9.51;61.44;100628.59;4463133;32;32121;-79
2023/04/09 07:22:22;;;;;;;;;;;;;;;9.80;60.72;100619.91;4462060;32;33189;-79
2023/04/09 07:25:01;;;;;;;;;;;;;;;10.05;59.99;100621.84;4461433;32;33055;-79
2023/04/09 07:27:30;;;;;;;;;;;;;;;9.95;59.83;100622.09;4476106;32;34312;-79
2023/04/09 07:32:43;;;;;;;;;;;;;;;10.35;55.98;100628.94;4474019;32;32517;-79
2023/04/09 07:35:19;;;;;;;;;;;;;;;10.23;55.62;100623.97;4471548;32;33935;-79
2023/04/09 07:37:51;;;;;;;;;;;;;;;10.06;57.24;100626.22;4484405;31;33477;-79
2023/04/09 07:40:20;;;;;;;;;;;;;;;9.80;58.31;100627.81;4476439;32;32749;-79
2023/04/09 07:42:48;;;;;;;;;;;;;;;9.84;57.85;100628.59;4462716;32;33079;-79
2023/04/09 07:45:17;;;;;;;;;;;;;;;9.76;58.39;100626.16;4469997;31;34318;-79
2023/04/09 07:47:46;;;;;;;;;;;;;;;10.45;55.11;100632.16;4462206;32;33449;-80
2023/04/09 07:50:19;;;;;;;;;;;;;;;10.51;54.88;100632.84;4465069;32;30994;-80
2023/04/09 07:52:56;;;;;;;;;;;;;;;10.33;55.29;100632.50;4461782;32;34006;-79
2023/04/09 07:55:25;;;;;;;;;;;;;;;10.08;55.82;100638.47;4464430;32;34274;-80
2023/04/09 08:00:33;;;;;;;;;;;;;;;9.99;56.53;100644.00;4478149;32;33380;-80
2023/04/09 08:03:08;;;;;;;;;;;;;;;9.93;57.26;100639.78;4475298;31;34276;-80
2023/04/09 08:05:42;;;;;;;;;;;;;;;10.16;56.69;100632.94;4484843;31;34689;-80
2023/04/09 08:08:14;;;;;;;;;;;;;;;10.17;55.34;100640.00;4487148;31;35085;-80
2023/04/09 08:10:45;;;;;;;;;;;;;;;10.62;54.98;100635.12;4489726;31;34162;-81
2023/04/09 08:13:26;;;;;;;;;;;;;;;10.35;56.27;100636.84;4482371;31;35528;-80
2023/04/09 08:15:54;;;;;;;;;;;;;;;10.49;55.68;100634.66;4478281;31;35509;-80
2023/04/09 08:18:24;;;;;;;;;;;;;;;10.37;53.82;100626.22;4482123;31;33937;-81
2023/04/09 08:21:03;;;;;;;;;;;;;;;10.51;53.12;100632.84;4484531;31;33771;-80
2023/04/09 08:23:32;;;;;;;;;;;;;;;10.44;53.96;100641.88;4478757;31;33520;-80
2023/04/09 08:26:02;;;;;;;;;;;;;;;10.48;55.44;100643.47;4480957;31;33944;-80
2023/04/09 08:28:31;;;;;;;;;;;;;;;10.18;54.27;100639.06;4492274;31;32387;-80
2023/04/09 08:31:04;;;;;;;;;;;;;;;10.52;54.01;100644.25;4478183;31;33059;-80
2023/04/09 08:33:34;;;;;;;;;;;;;;;10.64;52.69;100643.03;4468801;31;34075;-81
2023/04/09 08:36:07;;;;;;;;;;;;;;;10.40;54.12;100645.50;4480783;31;34624;-81
2023/04/09 08:38:34;;;;;;;;;;;;;;;10.74;53.03;100649.75;4472093;31;32452;-80
2023/04/09 08:41:03;;;;;;;;;;;;;;;10.67;52.88;100653.50;4492281;31;32986;-80
2023/04/09 08:46:28;;;;;;;;;;;;;;;10.50;53.29;100652.22;4486517;31;33420;-80
2023/04/09 08:48:56;;;;;;;;;;;;;;;10.81;52.62;100661.84;4471187;31;33910;-81
2023/04/09 08:51:25;;;;;;;;;;;;;;;11.00;52.16;100657.72;4492977;31;33879;-80
2023/04/09 08:53:56;;;;;;;;;;;;;;;11.09;51.46;100661.00;4477995;31;33237;-81
2023/04/09 08:56:38;;;;;;;;;;;;;;;11.21;51.58;100665.91;4490957;31;34720;-81
2023/04/09 08:59:07;;;;;;;;;;;;;;;11.40;50.85;100666.16;4494114;31;33524;-81
2023/04/09 09:01:37;;;;;;;;;;;;;;;11.25;49.60;100670.13;4492969;31;33806;-80
2023/04/09 09:04:13;;;;;;;;;;;;;;;10.95;51.78;100675.50;4481834;31;33440;-81
2023/04/09 09:06:46;;;;;;;;;;;;;;;11.31;52.07;100669.09;4483451;31;35099;-81
2023/04/09 09:09:17;;;;;;;;;;;;;;;11.54;51.97;100669.19;4493182;31;34720;-81
2023/04/09 09:11:52;;;;;;;;;;;;;;;11.92;49.33;100673.19;4486000;31;32243;-81
2023/04/09 09:14:23;;;;;;;;;;;;;;;11.16;49.84;100673.12;4481600;31;33938;-81
2023/04/09 09:17:00;;;;;;;;;;;;;;;11.44;50.37;100673.94;4469773;31;32889;-81
2023/04/09 09:19:36;;;;;;;;;;;;;;;11.89;48.52;100670.66;4480067;31;34279;-81
2023/04/09 09:22:05;;;;;;;;;;;;;;;11.37;51.11;100677.69;4491733;31;34190;-81
2023/04/09 09:24:40;;;;;;;;;;;;;;;11.22;49.65;100668.47;4471005;31;33262;-81
2023/04/09 09:27:18;;;;;;;;;;;;;;;11.33;50.97;100675.19;4487075;31;32871;-81
2023/04/09 09:29:49;;;;;;;;;;;;;;;12.11;48.70;100665.47;4493868;31;34500;-80
2023/04/09 09:32:22;;;;;;;;;;;;;;;11.64;49.12;100675.03;4467430;31;32882;-81
2023/04/09 09:34:59;;;;;;;;;;;;;;;11.58;49.82;100664.66;4475175;31;33547;-81
2023/04/09 09:37:27;;;;;;;;;;;;;;;11.66;49.00;100665.25;4490636;31;34182;-81
2023/04/09 09:40:03;;;;;;;;;;;;;;;11.61;49.50;100668.06;4485437;31;33624;-81
2023/04/09 09:42:37;;;;;;;;;;;;;;;11.69;48.28;100671.31;4493779;31;32422;-81
2023/04/09 09:47:53;;;;;;;;;;;;;;;11.69;48.81;100660.75;4493111;31;33935;-81
2023/04/09 09:50:27;;;;;;;;;;;;;;;11.77;49.94;100660.44;4475555;31;33884;-81
2023/04/09 09:53:02;;;;;;;;;;;;;;;11.91;49.04;100662.66;4468495;31;32546;-81
2023/04/09 09:55:40;;;;;;;;;;;;;;;12.10;49.31;100655.78;4474334;31;34267;-81
2023/04/09 09:58:23;;;;;;;;;;;;;;;12.30;48.24;100649.78;4492373;31;35913;-81
2023/04/09 10:00:52;;;;;;;;;;;;;;;12.15;48.58;100655.59;4493297;31;33365;-81
2023/04/09 10:03:22;;;;;;;;;;;;;;;11.62;49.02;100661.84;4477715;31;33012;-81
2023/04/09 10:05:55;;;;;;;;;;;;;;;12.31;47.05;100659.44;4486153;31;34933;-81
2023/04/09 10:10:57;;;;;;;;;;;;;;;11.73;48.53;100659.72;4495636;31;34322;-81
2023/04/09 10:13:34;;;;;;;;;;;;;;;11.41;50.87;100662.59;4468429;31;33392;-81
2023/04/09 10:16:06;;;;;;;;;;;;;;;11.74;49.78;100656.16;4493850;31;34834;-81
2023/04/09 10:18:37;;;;;;;;;;;;;;;11.53;49.23;100662.16;4480088;31;34855;-81
2023/04/09 10:21:19;;;;;;;;;;;;;;;11.58;49.38;100662.00;4480267;31;34222;-81
2023/04/09 10:23:49;;;;;;;;;;;;;;;11.09;50.63;100655.72;4468065;31;33433;-81
2023/04/09 10:26:18;;;;;;;;;;;;;;;11.40;50.41;100661.72;4507327;31;34102;-81
2023/04/09 10:28:46;;;;;;;;;;;;;;;11.51;50.76;100659.56;4468842;31;32564;-81
2023/04/09 10:33:50;;;;;;;;;;;;;;;11.82;49.96;100653.28;4495233;31;34324;-81
2023/04/09 10:36:23;;;;;;;;;;;;;;;11.75;48.70;100657.87;4479659;31;37467;-81
2023/04/09 10:38:52;;;;;;;;;;;;;;;11.94;48.35;100651.97;4473629;31;33052;-81
2023/04/09 10:41:28;;;;;;;;;;;;;;;11.95;49.92;100658.97;4480093;31;35632;-81
2023/04/09 10:44:05;;;;;;;;;;;;;;;12.20;46.99;100653.66;4486793;31;33197;-81
2023/04/09 10:46:46;;;;;;;;;;;;;;;11.79;47.69;100656.00;4487274;31;34018;-81
2023/04/09 10:49:25;;;;;;;;;;;;;;;11.88;49.52;100658.34;4493644;31;34699;-81
2023/04/09 10:52:02;;;;;;;;;;;;;;;12.36;46.89;100648.66;4506461;31;35780;-81
2023/04/09 10:54:42;;;;;;;;;;;;;;;12.14;48.11;100651.25;4494217;31;34154;-82
2023/04/09 10:57:15;;;;;;;;;;;;;;;11.89;49.00;100648.62;4493648;31;35493;-80
2023/04/09 10:59:46;;;;;;;;;;;;;;;12.62;46.16;100645.88;4476253;31;33385;-81
2023/04/09 11:02:36;;;;;;;;;;;;;;;11.77;49.63;100660.44;4487767;31;33507;-81
2023/04/09 11:05:19;;;;;;;;;;;;;;;11.73;49.54;100649.12;4493379;31;32197;-81
2023/04/09 11:08:03;;;;;;;;;;;;;;;11.54;50.10;100648.03;4492504;31;34242;-81
2023/04/09 11:10:34;;;;;;;;;;;;;;;12.01;48.38;100650.81;4491227;31;34401;-81
2023/04/09 11:13:11;;;;;;;;;;;;;;;11.88;48.38;100650.41;4478018;31;33276;-81
2023/04/09 11:15:44;;;;;;;;;;;;;;;11.45;48.98;100646.56;4494070;31;32844;-81
2023/04/09 11:18:15;;;;;;;;;;;;;;;12.00;48.30;100647.31;4483928;31;32889;-81
2023/04/09 11:20:43;;;;;;;;;;;;;;;11.34;51.27;100648.69;4485859;31;33074;-81
2023/04/09 11:23:12;;;;;;;;;;;;;;;11.40;50.13;100650.28;4500903;31;33910;-81
2023/04/09 11:25:49;;;;;;;;;;;;;;;11.61;49.78;100646.03;4479771;31;33189;-81
2023/04/09 11:28:25;;;;;;;;;;;;;;;11.90;49.98;100645.03;4481825;31;35019;-81
2023/04/09 11:31:06;;;;;;;;;;;;;;;12.47;46.70;100630.56;4493036;31;35918;-81
2023/04/09 11:33:40;;;;;;;;;;;;;;;12.67;48.19;100638.59;4469278;31;34018;-81
2023/04/09 11:36:09;;;;;;;;;;;;;;;12.84;47.45;100635.31;4495877;31;32622;-81
2023/04/09 11:38:38;;;;;;;;;;;;;;;12.90;46.25;100628.91;4480406;31;33411;-81
2023/04/09 11:41:11;;;;;;;;;;;;;;;12.81;46.87;100633.63;4493074;31;35063;-81
2023/04/09 11:46:24;;;;;;;;;;;;;;;12.42;47.63;100633.41;4492089;31;32516;-81
2023/04/09 11:48:55;;;;;;;;;;;;;;;12.71;46.70;100628.75;4492843;31;33042;-81
2023/04/09 11:51:26;;;;;;;;;;;;;;;12.54;47.48;100632.94;4491092;31;34032;-81
2023/04/09 11:53:54;;;;;;;;;;;;;;;13.17;44.79;100621.62;4494064;31;34256;-81
2023/04/09 11:56:30;;;;;;;;;;;;;;;13.22;45.65;100625.84;4494079;31;33389;-81
2023/04/09 11:58:59;;;;;;;;;;;;;;;13.11;46.01;100632.50;4480290;31;35325;-81
2023/04/09 12:01:31;;;;;;;;;;;;;;;13.10;45.99;100626.28;4467778;31;33126;-81
2023/04/09 12:03:59;;;;;;;;;;;;;;;12.66;45.74;100630.72;4493338;31;33865;-81
2023/04/09 12:06:30;;;;;;;;;;;;;;;12.89;45.21;100627.19;4494224;31;33334;-81
2023/04/09 12:08:58;;;;;;;;;;;;;;;12.78;45.46;100622.31;4494352;31;34032;-81
2023/04/09 12:11:28;;;;;;;;;;;;;;;13.40;44.10;100626.00;4486212;31;32964;-81
2023/04/09 12:14:04;;;;;;;;;;;;;;;13.09;45.31;100629.87;4479988;31;34513;-81
2023/04/09 12:16:40;;;;;;;;;;;;;;;12.81;44.77;100630.97;4494126;31;35236;-81
2023/04/09 12:19:11;;;;;;;;;;;;;;;13.61;41.50;100622.41;4494212;31;35661;-81
2023/04/09 12:21:53;;;;;;;;;;;;;;;13.62;42.08;100629.44;4484462;31;34575;-81
2023/04/09 12:27:04;;;;;;;;;;;;;;;13.25;41.48;100623.06;4494386;31;33367;-81
2023/04/09 12:29:37;;;;;;;;;;;;;;;12.94;43.97;100631.38;4480353;31;32795;-81
2023/04/09 12:32:07;;;;;;;;;;;;;;;12.35;46.45;100623.97;4480684;31;33538;-81
2023/04/09 12:34:38;;;;;;;;;;;;;;;12.40;46.62;100623.81;4466672;31;33718;-83
2023/04/09 12:37:08;;;;;;;;;;;;;;;12.36;46.90;100628.34;4480309;31;33214;-81
2023/04/09 12:39:42;;;;;;;;;;;;;;;12.26;47.23;100624.31;4485818;31;32598;-81
2023/04/09 12:42:12;;;;;;;;;;;;;;;12.46;48.25;100619.13;4479639;31;33146;-81
2023/04/09 12:44:40;;;;;;;;;;;;;;;12.72;48.27;100626.06;4486815;31;33697;-81
2023/04/09 12:47:08;;;;;;;;;;;;;;;12.58;48.03;100620.44;4479427;31;33521;-81
2023/04/09 12:52:21;;;;;;;;;;;;;;;12.70;46.21;100627.03;4499401;31;33831;-81
2023/04/09 12:54:52;;;;;;;;;;;;;;;12.64;46.61;100619.34;4478575;31;33864;-81
2023/04/09 12:57:19;;;;;;;;;;;;;;;12.57;48.54;100619.56;4490091;31;33793;-81
2023/04/09 12:59:47;;;;;;;;;;;;;;;12.80;46.23;100618.66;4467807;31;31050;-81
2023/04/09 13:02:15;;;;;;;;;;;;;;;12.97;46.55;100620.66;4484568;31;33500;-81
2023/04/09 13:04:52;;;;;;;;;;;;;;;13.08;46.63;100618.41;4491671;31;34830;-81
2023/04/09 13:07:23;;;;;;;;;;;;;;;13.67;43.44;100611.53;4463382;32;33183;-81
2023/04/09 13:10:05;;;;;;;;;;;;;;;13.41;45.80;100603.84;4479589;31;35761;-81
2023/04/09 13:12:34;;;;;;;;;;;;;;;13.65;44.70;100601.94;4484795;32;33796;-81
2023/04/09 13:15:04;;;;;;;;;;;;;;;13.64;45.29;100586.94;4465040;32;33510;-81
2023/04/09 13:17:34;;;;;;;;;;;;;;;13.68;43.46;100602.66;4465030;32;33722;-81
2023/04/09 13:22:40;;;;;;;;;;;;;;;13.00;45.73;100595.78;4479414;31;33005;-81
2023/04/09 13:25:10;;;;;;;;;;;;;;;13.13;46.62;100599.66;4480932;31;32826;-81
2023/04/09 13:27:41;;;;;;;;;;;;;;;13.76;43.75;100595.19;4464168;32;32548;-81
2023/04/09 13:30:15;;;;;;;;;;;;;;;13.38;46.78;100591.56;4476771;32;35820;-81
2023/04/09 13:32:53;;;;;;;;;;;;;;;13.31;45.39;100587.47;4464599;31;34460;-81
2023/04/09 13:35:26;;;;;;;;;;;;;;;14.01;44.43;100583.50;4492126;31;33313;-81